createdAt,value
2023-02-21T00:02:43.387Z,2.17
2023-02-21T00:05:28.806Z,2.20
2023-02-21T00:08:14.074Z,1.95
2023-02-21T00:10:59.182Z,1.80
2023-02-21T00:13:44.230Z,1.77
2023-02-21T00:16:34.727Z,1.80
2023-02-21T00:19:19.870Z,2.00
2023-02-21T00:22:05.198Z,1.77
2023-02-21T00:24:50.706Z,1.88
2023-02-21T00:27:36.001Z,1.95
2023-02-21T00:30:21.597Z,1.88
2023-02-21T00:33:07.357Z,1.80
2023-02-21T00:35:52.603Z,1.80
2023-02-21T00:38:39.942Z,1.75
2023-02-21T00:41:25.135Z,1.80
2023-02-21T00:44:10.129Z,1.70
2023-02-21T00:46:56.057Z,2.20
2023-02-21T00:49:40.869Z,2.08
2023-02-21T00:52:26.127Z,1.85
2023-02-21T00:55:11.570Z,2.40
2023-02-21T00:57:56.617Z,2.00
2023-02-21T01:00:44.394Z,1.92
2023-02-21T01:03:31.030Z,2.00
2023-02-21T01:06:16.386Z,2.00
2023-02-21T01:09:04.089Z,2.10
2023-02-21T01:11:49.765Z,2.15
2023-02-21T01:14:34.879Z,1.90
2023-02-21T01:17:20.470Z,2.20
2023-02-21T01:20:05.901Z,1.60
2023-02-21T01:22:51.250Z,2.40
2023-02-21T01:25:36.211Z,2.38
2023-02-21T01:28:21.322Z,2.30
2023-02-21T01:31:06.676Z,1.92
2023-02-21T01:33:57.540Z,1.98
2023-02-21T01:36:43.636Z,1.85
2023-02-21T01:39:30.044Z,1.98
2023-02-21T01:42:15.354Z,2.10
2023-02-21T01:45:03.104Z,2.42
2023-02-21T01:47:49.232Z,2.15
2023-02-21T01:50:47.082Z,1.90
2023-02-21T01:53:36.649Z,2.20
2023-02-21T01:56:21.933Z,1.90
2023-02-21T01:59:09.746Z,2.00
2023-02-21T02:02:06.479Z,2.22
2023-02-21T02:04:52.718Z,2.15
2023-02-21T02:07:38.558Z,1.85
2023-02-21T02:10:25.931Z,2.27
2023-02-21T02:13:04.610Z,2.00
2023-02-21T02:15:58.223Z,1.77
2023-02-21T02:18:41.025Z,1.92
2023-02-21T02:21:20.355Z,2.05
2023-02-21T02:24:05.446Z,1.63
2023-02-21T02:27:21.214Z,2.40
2023-02-21T02:30:11.763Z,1.60
2023-02-21T02:33:10.942Z,1.92
2023-02-21T02:35:46.360Z,2.17
2023-02-21T02:38:47.146Z,2.00
2023-02-21T02:41:17.983Z,2.50
2023-02-21T02:44:06.926Z,1.80
2023-02-21T02:46:38.491Z,1.75
2023-02-21T02:49:10.462Z,1.70
2023-02-21T02:51:37.203Z,1.93
2023-02-21T02:54:04.515Z,1.75
2023-02-21T02:56:31.154Z,1.60
2023-02-21T02:59:10.130Z,1.70
2023-02-21T03:01:48.554Z,1.63
2023-02-21T03:04:37.152Z,1.87
2023-02-21T03:07:42.569Z,1.65
2023-02-21T03:10:39.294Z,2.03
2023-02-21T03:13:13.507Z,1.92
2023-02-21T03:15:56.863Z,1.63
2023-02-21T03:18:33.812Z,2.23
2023-02-21T03:21:03.811Z,2.33
2023-02-21T03:23:32.650Z,2.40
2023-02-21T03:26:03.668Z,2.30
2023-02-21T03:28:32.372Z,2.10
2023-02-21T03:31:00.865Z,2.13
2023-02-21T03:33:27.646Z,2.50
2023-02-21T03:35:54.591Z,1.75
2023-02-21T03:38:21.564Z,2.13
2023-02-21T03:40:48.254Z,2.22
2023-02-21T03:43:15.056Z,2.33
2023-02-21T03:45:41.399Z,2.58
2023-02-21T03:48:08.011Z,2.03
2023-02-21T03:50:34.644Z,2.28
2023-02-21T03:53:01.274Z,2.60
2023-02-21T03:55:28.255Z,3.50
2023-02-21T03:57:55.153Z,3.05
2023-02-21T04:00:21.589Z,3.75
2023-02-21T04:02:47.974Z,3.67
2023-02-21T04:05:14.633Z,4.95
2023-02-21T04:07:41.253Z,4.03
2023-02-21T04:10:07.987Z,4.20
2023-02-21T04:12:34.660Z,4.28
2023-02-21T04:15:01.062Z,4.38
2023-02-21T04:17:27.625Z,4.78
2023-02-21T04:19:54.116Z,4.53
2023-02-21T04:22:20.691Z,4.22
2023-02-21T04:24:48.357Z,4.32
2023-02-21T04:27:16.032Z,4.30
2023-02-21T04:29:42.580Z,4.53
2023-02-21T04:32:10.931Z,4.63
2023-02-21T04:34:37.362Z,4.40
2023-02-21T04:37:04.068Z,4.60
2023-02-21T04:39:30.641Z,4.65
2023-02-21T04:41:57.308Z,4.55
2023-02-21T04:44:23.977Z,4.47
2023-02-21T04:46:50.361Z,4.65
2023-02-21T04:49:16.712Z,5.65
2023-02-21T04:51:43.077Z,5.00
2023-02-21T04:54:09.634Z,4.82
2023-02-21T04:56:37.684Z,5.23
2023-02-21T04:59:04.627Z,5.03
2023-02-21T05:01:31.810Z,4.65
2023-02-21T05:04:00.023Z,5.38
2023-02-21T05:06:28.474Z,4.55
2023-02-21T05:08:55.606Z,4.67
2023-02-21T05:11:23.471Z,5.20
2023-02-21T05:13:50.300Z,4.90
2023-02-21T05:16:19.698Z,4.68
2023-02-21T05:18:48.687Z,5.10
2023-02-21T05:21:18.473Z,5.40
2023-02-21T05:23:55.939Z,4.82
2023-02-21T05:26:38.389Z,5.75
2023-02-21T05:29:05.442Z,5.60
2023-02-21T05:31:32.073Z,5.78
2023-02-21T05:33:58.755Z,6.40
2023-02-21T05:36:26.011Z,6.43
2023-02-21T05:38:55.603Z,7.75
2023-02-21T05:41:23.565Z,7.15
2023-02-21T05:43:50.669Z,7.13
2023-02-21T05:46:36.646Z,6.77
2023-02-21T05:49:06.272Z,7.28
2023-02-21T05:51:37.827Z,7.03
2023-02-21T05:54:06.057Z,6.47
2023-02-21T05:56:40.026Z,6.80
2023-02-21T05:59:07.107Z,7.20
2023-02-21T06:01:33.762Z,7.63
2023-02-21T06:04:00.400Z,7.47
2023-02-21T06:06:27.560Z,7.85
2023-02-21T06:08:54.264Z,7.95
2023-02-21T06:11:28.148Z,8.03
2023-02-21T06:13:56.680Z,7.65
2023-02-21T06:16:24.347Z,7.70
2023-02-21T06:18:52.146Z,8.32
2023-02-21T06:21:19.091Z,7.63
2023-02-21T06:23:45.813Z,8.10
2023-02-21T06:26:13.031Z,7.95
2023-02-21T06:28:39.412Z,7.07
2023-02-21T06:31:06.123Z,7.13
2023-02-21T06:33:32.933Z,7.10
2023-02-21T06:36:04.523Z,7.60
2023-02-21T06:38:31.161Z,7.60
2023-02-21T06:40:57.793Z,7.13
2023-02-21T06:43:24.389Z,7.38
2023-02-21T06:45:51.116Z,6.88
2023-02-21T06:48:18.269Z,6.80
2023-02-21T06:50:45.093Z,7.32
2023-02-21T06:53:11.589Z,6.93
2023-02-21T06:55:38.250Z,7.53
2023-02-21T06:58:05.474Z,7.65
2023-02-21T07:00:31.913Z,7.60
2023-02-21T07:02:58.301Z,7.60
2023-02-21T07:05:25.326Z,6.80
2023-02-21T07:07:52.060Z,7.70
2023-02-21T07:10:18.790Z,7.25
2023-02-21T07:12:45.442Z,7.43
2023-02-21T07:15:12.165Z,7.55
2023-02-21T07:17:38.811Z,7.38
2023-02-21T07:20:05.915Z,7.10
2023-02-21T07:22:32.276Z,7.15
2023-02-21T07:24:58.788Z,7.47
2023-02-21T07:27:25.399Z,7.60
2023-02-21T07:29:52.112Z,6.85
2023-02-21T07:32:18.887Z,7.18
2023-02-21T07:34:45.936Z,7.15
2023-02-21T07:37:12.533Z,7.90
2023-02-21T07:39:39.180Z,7.32
2023-02-21T07:42:05.682Z,7.38
2023-02-21T07:44:32.235Z,8.77
2023-02-21T07:46:58.965Z,8.35
2023-02-21T07:49:25.769Z,7.27
2023-02-21T07:51:52.462Z,7.22
2023-02-21T07:54:19.296Z,7.40
2023-02-21T07:56:47.517Z,7.53
2023-02-21T07:59:14.626Z,7.15
2023-02-21T08:01:41.409Z,7.07
2023-02-21T08:04:08.177Z,6.95
2023-02-21T08:06:35.801Z,7.00
2023-02-21T08:09:02.759Z,6.93
2023-02-21T08:11:29.349Z,7.20
2023-02-21T08:13:55.699Z,7.30
2023-02-21T08:16:22.127Z,6.57
2023-02-21T08:18:50.678Z,6.75
2023-02-21T08:21:17.472Z,7.72
2023-02-21T08:23:44.056Z,6.72
2023-02-21T08:26:11.298Z,7.97
2023-02-21T08:28:37.999Z,8.38
2023-02-21T08:31:04.902Z,6.85
2023-02-21T08:33:31.747Z,6.25
2023-02-21T08:35:58.450Z,6.32
2023-02-21T08:38:24.933Z,6.40
2023-02-21T08:40:51.834Z,6.22
2023-02-21T08:43:18.517Z,6.15
2023-02-21T08:45:44.954Z,5.68
2023-02-21T08:48:12.166Z,6.25
2023-02-21T08:50:38.756Z,5.77
2023-02-21T08:53:05.342Z,5.30
2023-02-21T08:55:32.053Z,5.82
2023-02-21T08:57:58.640Z,4.63
2023-02-21T09:00:28.647Z,5.35
2023-02-21T09:02:56.207Z,5.70
2023-02-21T09:05:28.680Z,4.93
2023-02-21T09:07:59.306Z,5.00
2023-02-21T09:10:30.513Z,6.32
2023-02-21T09:12:57.162Z,4.97
2023-02-21T09:15:23.886Z,4.00
2023-02-21T09:17:51.376Z,6.75
2023-02-21T09:20:23.428Z,5.00
2023-02-21T09:22:50.493Z,6.40
2023-02-21T09:25:20.445Z,5.22
2023-02-21T09:27:47.116Z,5.63
2023-02-21T09:30:18.977Z,4.57
2023-02-21T09:32:45.497Z,4.75
2023-02-21T09:35:14.240Z,4.50
2023-02-21T09:37:42.495Z,5.55
2023-02-21T09:40:41.785Z,5.83
2023-02-21T09:43:16.178Z,5.13
2023-02-21T09:45:44.276Z,5.40
2023-02-21T09:48:19.092Z,4.50
2023-02-21T09:50:49.748Z,5.07
2023-02-21T09:53:40.374Z,4.40
2023-02-21T09:56:18.293Z,4.28
2023-02-21T09:58:45.173Z,7.05
2023-02-21T10:01:26.414Z,4.78
2023-02-21T10:04:34.662Z,4.50
2023-02-21T10:07:17.303Z,4.73
2023-02-21T10:10:02.730Z,4.72
2023-02-21T10:12:36.200Z,4.20
2023-02-21T10:15:27.108Z,4.00
2023-02-21T10:18:05.643Z,4.55
2023-02-21T10:20:41.712Z,4.67
2023-02-21T10:23:40.883Z,5.00
2023-02-21T10:26:16.436Z,4.70
2023-02-21T10:28:43.560Z,4.43
2023-02-21T10:31:32.589Z,3.38
2023-02-21T10:34:00.793Z,3.50
2023-02-21T10:36:30.234Z,3.65
2023-02-21T10:39:34.927Z,3.05
2023-02-21T10:42:01.556Z,3.30
2023-02-21T10:44:32.339Z,3.30
2023-02-21T10:47:04.366Z,2.87
2023-02-21T10:49:41.046Z,3.97
2023-02-21T10:52:12.294Z,3.53
2023-02-21T10:54:39.602Z,3.08
2023-02-21T10:57:16.340Z,3.60
2023-02-21T10:59:43.731Z,3.27
2023-02-21T11:02:31.245Z,3.50
2023-02-21T11:05:08.827Z,4.07
2023-02-21T11:07:35.665Z,3.22
2023-02-21T11:10:02.082Z,4.22
2023-02-21T11:12:32.174Z,3.37
2023-02-21T11:15:01.836Z,3.38
2023-02-21T11:17:30.044Z,3.22
2023-02-21T11:20:18.227Z,3.83
2023-02-21T11:22:46.945Z,3.33
2023-02-21T11:25:32.059Z,3.33
2023-02-21T11:28:22.798Z,2.90
2023-02-21T11:30:52.000Z,3.38
2023-02-21T11:33:22.081Z,3.50
2023-02-21T11:35:51.530Z,3.65
2023-02-21T11:38:41.641Z,3.70
2023-02-21T11:41:29.608Z,3.30
2023-02-21T11:43:57.379Z,3.42
2023-02-21T11:46:47.341Z,3.80
2023-02-21T11:49:13.849Z,3.60
2023-02-21T11:51:49.490Z,4.63
2023-02-21T11:54:16.501Z,2.92
2023-02-21T11:56:51.975Z,3.30
2023-02-21T11:59:30.023Z,3.58
2023-02-21T12:02:18.532Z,3.53
2023-02-21T12:05:09.894Z,3.60
2023-02-21T12:08:20.994Z,3.67
2023-02-21T12:11:02.099Z,4.13
2023-02-21T12:14:06.252Z,4.05
2023-02-21T12:16:33.093Z,3.63
2023-02-21T12:19:37.734Z,3.57
2023-02-21T12:23:05.970Z,3.88
2023-02-21T12:25:51.082Z,3.28
2023-02-21T12:28:32.687Z,4.10
2023-02-21T12:31:13.497Z,3.85
2023-02-21T12:33:46.507Z,3.53
2023-02-21T12:36:45.228Z,3.78
2023-02-21T12:39:34.592Z,3.92
2023-02-21T12:42:33.764Z,3.42
2023-02-21T12:45:06.422Z,3.83
2023-02-21T12:47:43.809Z,3.57
2023-02-21T12:50:22.850Z,3.80
2023-02-21T12:53:05.026Z,3.38
2023-02-21T12:55:37.275Z,3.08
2023-02-21T12:58:21.185Z,3.95
2023-02-21T13:00:55.124Z,3.00
2023-02-21T13:03:45.609Z,3.58
2023-02-21T13:06:15.169Z,2.85
2023-02-21T13:09:06.296Z,3.03
2023-02-21T13:11:58.134Z,3.45
2023-02-21T13:14:31.868Z,3.30
2023-02-21T13:16:58.578Z,3.35
2023-02-21T13:19:31.337Z,4.35
2023-02-21T13:22:54.543Z,3.80
2023-02-21T13:25:58.454Z,3.85
2023-02-21T13:28:29.807Z,3.53
2023-02-21T13:31:02.507Z,3.15
2023-02-21T13:33:44.297Z,3.00
2023-02-21T13:36:26.557Z,3.88
2023-02-21T13:39:11.993Z,4.50
2023-02-21T13:42:15.956Z,3.30
2023-02-21T13:44:46.086Z,3.13
2023-02-21T13:47:22.970Z,3.22
2023-02-21T13:49:54.264Z,3.35
2023-02-21T13:52:23.537Z,3.28
2023-02-21T13:55:15.211Z,3.60
2023-02-21T13:57:49.853Z,3.40
2023-02-21T14:00:19.184Z,3.15
2023-02-21T14:02:56.172Z,3.20
2023-02-21T14:05:23.949Z,3.08
2023-02-21T14:07:56.672Z,2.67
2023-02-21T14:10:44.371Z,2.53
2023-02-21T14:13:45.741Z,2.70
2023-02-21T14:16:45.932Z,2.40
2023-02-21T14:19:22.429Z,3.03
2023-02-21T14:21:57.742Z,2.60
2023-02-21T14:24:27.900Z,2.63
2023-02-21T14:27:03.421Z,3.20
2023-02-21T14:29:36.369Z,2.83
2023-02-21T14:32:03.849Z,3.03
2023-02-21T14:34:33.702Z,2.97
2023-02-21T14:37:15.768Z,2.55
2023-02-21T14:39:46.092Z,3.08
2023-02-21T14:42:37.441Z,2.45
2023-02-21T14:45:14.355Z,2.25
2023-02-21T14:47:59.599Z,1.90
2023-02-21T14:51:03.930Z,1.98
2023-02-21T14:53:58.200Z,2.67
2023-02-21T14:56:43.390Z,2.30
2023-02-21T14:59:25.388Z,2.42
2023-02-21T15:02:15.100Z,2.10
2023-02-21T15:04:49.791Z,2.05
2023-02-21T15:07:52.406Z,2.45
2023-02-21T15:10:33.710Z,1.88
2023-02-21T15:13:03.028Z,3.25
2023-02-21T15:15:33.990Z,1.87
2023-02-21T15:18:23.860Z,2.55
2023-02-21T15:21:02.567Z,2.88
2023-02-21T15:23:29.817Z,2.00
2023-02-21T15:25:58.576Z,1.77
2023-02-21T15:28:28.654Z,1.57
2023-02-21T15:31:18.437Z,2.03
2023-02-21T15:33:45.399Z,1.83
2023-02-21T15:36:20.349Z,1.55
2023-02-21T15:39:11.265Z,2.33
2023-02-21T15:41:46.076Z,1.73
2023-02-21T15:44:26.153Z,2.80
2023-02-21T15:47:04.969Z,2.83
2023-02-21T15:49:56.249Z,1.73
2023-02-21T15:52:34.821Z,2.58
2023-02-21T15:55:27.941Z,2.37
2023-02-21T15:58:04.427Z,1.27
2023-02-21T16:00:38.352Z,1.50
2023-02-21T16:03:28.460Z,1.30
2023-02-21T16:06:27.809Z,1.67
2023-02-21T16:09:08.385Z,1.77
2023-02-21T16:11:42.508Z,1.48
2023-02-21T16:14:29.490Z,1.60
2023-02-21T16:17:24.408Z,11.65
2023-02-21T16:19:57.105Z,6.20
2023-02-21T16:22:26.613Z,4.57
2023-02-21T16:25:12.909Z,2.70
2023-02-21T16:27:41.226Z,2.63
2023-02-21T16:30:23.520Z,2.75
2023-02-21T16:32:51.905Z,2.08
2023-02-21T16:35:23.027Z,2.23
2023-02-21T16:37:52.128Z,2.20
2023-02-21T16:40:25.144Z,2.20
2023-02-21T16:42:53.500Z,2.72
2023-02-21T16:45:21.287Z,2.60
2023-02-21T16:47:50.611Z,2.67
2023-02-21T16:50:30.908Z,2.53
2023-02-21T16:52:58.029Z,2.45
2023-02-21T16:55:24.605Z,2.65
2023-02-21T16:57:53.940Z,2.72
2023-02-21T17:00:22.267Z,2.87
2023-02-21T17:02:50.216Z,2.20
2023-02-21T17:05:20.548Z,2.63
2023-02-21T17:07:49.815Z,2.40
2023-02-21T17:10:16.484Z,3.00
2023-02-21T17:12:43.451Z,2.67
2023-02-21T17:15:11.266Z,3.00
2023-02-21T17:17:38.927Z,2.70
2023-02-21T17:20:07.256Z,2.83
2023-02-21T17:22:36.432Z,2.97
2023-02-21T17:25:02.897Z,2.80
2023-02-21T17:27:29.272Z,3.10
2023-02-21T17:29:55.871Z,2.50
2023-02-21T17:32:22.258Z,2.92
2023-02-21T17:34:48.930Z,2.88
2023-02-21T17:37:15.526Z,2.53
2023-02-21T17:39:42.174Z,2.60
2023-02-21T17:42:08.947Z,3.33
2023-02-21T17:44:37.846Z,2.88
2023-02-21T17:47:07.708Z,2.90
2023-02-21T17:49:34.395Z,3.40
2023-02-21T17:52:01.110Z,4.10
2023-02-21T17:54:27.701Z,3.53
2023-02-21T17:56:54.307Z,4.03
2023-02-21T17:59:20.835Z,3.40
2023-02-21T18:01:47.658Z,3.30
2023-02-21T18:04:15.155Z,3.40
2023-02-21T18:06:42.222Z,3.38
2023-02-21T18:09:09.868Z,4.22
2023-02-21T18:11:37.013Z,4.60
2023-02-21T18:14:04.268Z,5.40
2023-02-21T18:16:31.492Z,5.70
2023-02-21T18:18:57.917Z,4.93
2023-02-21T18:21:25.148Z,5.20
2023-02-21T18:23:52.001Z,5.45
2023-02-21T18:26:19.044Z,5.13
2023-02-21T18:28:45.700Z,4.80
2023-02-21T18:31:16.144Z,5.03
2023-02-21T18:33:43.393Z,4.70
2023-02-21T18:36:12.957Z,6.03
2023-02-21T18:38:41.812Z,5.63
2023-02-21T18:41:17.745Z,5.88
2023-02-21T18:43:44.892Z,6.28
2023-02-21T18:46:13.766Z,6.85
2023-02-21T18:48:46.734Z,5.82
2023-02-21T18:51:15.964Z,5.60
2023-02-21T18:53:47.111Z,7.63
2023-02-21T18:56:15.529Z,7.53
2023-02-21T18:58:42.354Z,7.72
2023-02-21T19:01:11.479Z,7.93
2023-02-21T19:03:38.526Z,8.27
2023-02-21T19:06:08.319Z,8.30
2023-02-21T19:08:34.689Z,8.27
2023-02-21T19:11:01.008Z,8.50
2023-02-21T19:13:27.329Z,8.60
2023-02-21T19:15:53.906Z,8.43
2023-02-21T19:18:20.518Z,8.65
2023-02-21T19:20:49.451Z,7.70
2023-02-21T19:23:16.660Z,7.80
2023-02-21T19:25:43.357Z,7.82
2023-02-21T19:28:09.950Z,7.63
2023-02-21T19:30:37.241Z,7.63
2023-02-21T19:33:05.887Z,6.88
2023-02-21T19:35:33.916Z,4.93
2023-02-21T19:38:04.469Z,6.10
2023-02-21T19:40:31.421Z,5.33
2023-02-21T19:42:57.871Z,9.20
2023-02-21T19:45:24.875Z,8.18
2023-02-21T19:47:51.454Z,8.50
2023-02-21T19:50:18.382Z,8.25
2023-02-21T19:52:47.401Z,8.73
2023-02-21T19:55:15.220Z,7.97
2023-02-21T19:57:41.629Z,9.02
2023-02-21T20:00:11.089Z,12.05
2023-02-21T20:02:37.488Z,10.55
2023-02-21T20:05:04.721Z,10.97
2023-02-21T20:07:31.344Z,10.50
2023-02-21T20:09:57.698Z,10.40
2023-02-21T20:12:24.426Z,10.35
2023-02-21T20:14:51.235Z,10.48
2023-02-21T20:17:19.467Z,9.00
2023-02-21T20:19:46.146Z,9.25
2023-02-21T20:22:13.882Z,8.50
2023-02-21T20:24:45.934Z,8.30
2023-02-21T20:27:14.419Z,9.10
2023-02-21T20:29:41.433Z,8.70
2023-02-21T20:32:08.323Z,8.85
2023-02-21T20:34:35.356Z,9.10
2023-02-21T20:37:01.963Z,8.10
2023-02-21T20:39:34.032Z,10.10
2023-02-21T20:42:02.665Z,9.30
2023-02-21T20:44:34.420Z,9.15
2023-02-21T20:47:01.902Z,9.82
2023-02-21T20:49:28.548Z,9.55
2023-02-21T20:51:55.155Z,9.48
2023-02-21T20:54:22.047Z,7.70
2023-02-21T20:56:51.258Z,8.02
2023-02-21T20:59:21.239Z,8.05
2023-02-21T21:01:48.588Z,7.72
2023-02-21T21:04:26.824Z,9.00
2023-02-21T21:06:58.750Z,11.23
2023-02-21T21:09:34.689Z,12.20
2023-02-21T21:12:03.558Z,13.18
2023-02-21T21:14:32.972Z,12.65
2023-02-21T21:17:00.456Z,12.50
2023-02-21T21:19:33.814Z,12.00
2023-02-21T21:22:06.083Z,11.55
2023-02-21T21:24:32.862Z,11.02
2023-02-21T21:27:06.247Z,10.55
2023-02-21T21:29:36.547Z,9.77
2023-02-21T21:32:05.650Z,9.13
2023-02-21T21:34:33.674Z,8.75
2023-02-21T21:37:02.024Z,8.45
2023-02-21T21:39:28.589Z,7.75
2023-02-21T21:41:58.888Z,7.18
2023-02-21T21:44:26.920Z,7.70
2023-02-21T21:46:54.358Z,6.70
2023-02-21T21:49:23.291Z,7.40
2023-02-21T21:51:50.211Z,6.90
2023-02-21T21:54:20.808Z,6.35
2023-02-21T21:56:48.362Z,6.10
2023-02-21T21:59:20.852Z,6.07
2023-02-21T22:01:47.935Z,6.10
2023-02-21T22:04:14.732Z,6.40
2023-02-21T22:06:41.968Z,6.32
2023-02-21T22:09:09.896Z,7.23
2023-02-21T22:11:37.110Z,7.53
2023-02-21T22:14:03.843Z,7.63
2023-02-21T22:16:42.197Z,8.80
2023-02-21T22:19:09.404Z,8.00
2023-02-21T22:21:37.170Z,8.27
2023-02-21T22:24:05.059Z,7.95
2023-02-21T22:26:32.254Z,8.32
2023-02-21T22:28:59.368Z,8.98
2023-02-21T22:31:27.281Z,9.38
2023-02-21T22:33:59.407Z,9.50
2023-02-21T22:36:26.614Z,8.77
2023-02-21T22:38:55.447Z,8.90
2023-02-21T22:41:26.624Z,9.48
2023-02-21T22:43:55.705Z,8.13
2023-02-21T22:46:23.951Z,6.40
2023-02-21T22:48:50.533Z,6.28
2023-02-21T22:51:18.956Z,6.93
2023-02-21T22:53:50.126Z,6.35
2023-02-21T22:56:23.352Z,6.63
2023-02-21T22:58:51.140Z,6.07
2023-02-21T23:01:21.126Z,5.88
2023-02-21T23:03:48.214Z,6.03
2023-02-21T23:06:15.225Z,5.82
2023-02-21T23:08:48.142Z,6.20
2023-02-21T23:11:24.029Z,6.23
2023-02-21T23:13:50.633Z,6.03
2023-02-21T23:16:22.086Z,6.20
2023-02-21T23:18:48.730Z,6.50
2023-02-21T23:21:23.139Z,5.82
2023-02-21T23:23:51.062Z,5.83
2023-02-21T23:26:19.823Z,5.93
2023-02-21T23:28:47.602Z,6.70
2023-02-21T23:31:14.728Z,5.88
2023-02-21T23:33:42.118Z,6.00
2023-02-21T23:36:09.041Z,5.53
2023-02-21T23:38:38.345Z,5.82
2023-02-21T23:41:09.571Z,5.07
2023-02-21T23:43:37.314Z,5.28
2023-02-21T23:46:07.213Z,5.07
2023-02-21T23:48:33.896Z,5.30
2023-02-21T23:51:00.471Z,4.60
2023-02-21T23:53:28.954Z,4.80
2023-02-21T23:55:57.914Z,5.32
2023-02-21T23:58:34.166Z,5.63
